Time;durP1;ratioP1;P1;durP2;ratioP2;P2;SDS_P1;SDS_P2;PMS_P1;PMS_P2;Temp;Humidity;BMP_temperature;BMP_pressure;BME280_temperature;BME280_humidity;BME280_pressure;Samples;Min_cycle;Max_cycle;Signal;HPM_P1;HPM_P2
2022/02/18 00:01:09;;;;;;;13.45;12.05;;;10.40;99.90;;;;;;4974334;28;20047;-52
2022/02/18 00:03:41;;;;;;;15.45;11.88;;;10.40;99.90;;;;;;4973609;28;20065;-52
2022/02/18 00:06:08;;;;;;;14.93;10.30;;;10.40;99.90;;;;;;4972799;28;20050;-51
2022/02/18 00:08:36;;;;;;;13.43;10.27;;;10.40;99.90;;;;;;4970927;28;20502;-51
2022/02/18 00:11:05;;;;;;;14.90;9.65;;;10.40;99.90;;;;;;4975211;28;20070;-55
2022/02/18 00:13:34;;;;;;;12.68;8.55;;;10.40;99.90;;;;;;4949659;28;20039;-50
2022/02/18 00:16:03;;;;;;;10.88;8.95;;;10.40;99.90;;;;;;4968648;28;20050;-55
2022/02/18 00:18:31;;;;;;;11.98;8.07;;;10.40;99.90;;;;;;4974164;28;20043;-52
2022/02/18 00:20:59;;;;;;;12.68;7.90;;;10.40;99.90;;;;;;4969341;28;20565;-50
2022/02/18 00:23:26;;;;;;;10.82;7.85;;;10.30;99.90;;;;;;4973140;28;20059;-52
2022/02/18 00:25:55;;;;;;;8.77;7.25;;;10.30;99.90;;;;;;4971990;28;20038;-51
2022/02/18 00:28:23;;;;;;;8.02;6.50;;;10.30;99.90;;;;;;4974173;28;20047;-52
2022/02/18 00:30:50;;;;;;;9.82;6.95;;;10.20;99.90;;;;;;4969651;28;20052;-51
2022/02/18 00:33:19;;;;;;;12.77;8.00;;;10.20;99.90;;;;;;4965613;28;20051;-49
2022/02/18 00:35:48;;;;;;;10.32;7.00;;;10.10;99.90;;;;;;4972699;28;20087;-51
2022/02/18 00:38:17;;;;;;;8.63;6.50;;;10.00;99.90;;;;;;4973822;28;20049;-54
2022/02/18 00:40:45;;;;;;;8.25;6.70;;;10.00;99.90;;;;;;4934274;28;20047;-50
2022/02/18 00:43:14;;;;;;;11.25;6.38;;;10.10;99.90;;;;;;4952557;28;20404;-51
2022/02/18 00:45:42;;;;;;;6.70;5.45;;;10.10;99.90;;;;;;4971664;28;20078;-54
2022/02/18 00:48:09;;;;;;;9.75;6.05;;;10.20;99.90;;;;;;4973254;28;20072;-54
2022/02/18 00:50:41;;;;;;;9.15;5.72;;;10.20;99.90;;;;;;4972408;28;20509;-55
2022/02/18 00:53:10;;;;;;;9.23;5.93;;;10.20;99.90;;;;;;4972566;28;20070;-51
2022/02/18 00:55:38;;;;;;;7.25;5.13;;;10.30;99.90;;;;;;4972247;28;20047;-52
2022/02/18 00:58:06;;;;;;;7.80;5.68;;;10.30;99.90;;;;;;4989317;28;20113;-50
2022/02/18 01:00:33;;;;;;;7.68;6.18;;;10.30;99.90;;;;;;4972131;28;20513;-51
2022/02/18 01:03:01;;;;;;;7.15;4.78;;;10.40;99.90;;;;;;4956678;28;20125;-51
2022/02/18 01:05:30;;;;;;;7.03;5.35;;;10.40;99.90;;;;;;4971600;28;20059;-54
2022/02/18 01:07:59;;;;;;;6.68;4.95;;;10.50;99.90;;;;;;4972550;28;20106;-54
2022/02/18 01:10:27;;;;;;;6.85;4.72;;;10.50;99.90;;;;;;4953990;28;20453;-51
2022/02/18 01:12:57;;;;;;;7.40;5.13;;;10.40;99.90;;;;;;4954415;28;20142;-52
2022/02/18 01:15:26;;;;;;;7.82;5.35;;;10.50;99.90;;;;;;4969443;28;20138;-51
2022/02/18 01:17:54;;;;;;;10.32;6.20;;;10.50;99.90;;;;;;4979359;28;20051;-52
2022/02/18 01:20:24;;;;;;;8.00;4.78;;;10.60;99.90;;;;;;4972536;28;20045;-57
2022/02/18 01:22:52;;;;;;;8.05;5.93;;;10.60;99.90;;;;;;4972266;28;20050;-49
2022/02/18 01:25:20;;;;;;;10.00;5.88;;;10.50;99.90;;;;;;4954939;28;20602;-50
2022/02/18 01:27:48;;;;;;;10.15;5.82;;;10.50;99.90;;;;;;4956886;28;20549;-50
2022/02/18 01:30:15;;;;;;;8.75;4.88;;;10.50;99.90;;;;;;4956153;28;20144;-52
2022/02/18 01:32:43;;;;;;;8.90;5.40;;;10.40;99.90;;;;;;4971611;28;20069;-49
2022/02/18 01:35:15;;;;;;;7.60;5.05;;;10.50;99.90;;;;;;4971792;28;20043;-54
2022/02/18 01:37:42;;;;;;;7.90;4.70;;;10.50;99.90;;;;;;4967467;28;20073;-51
2022/02/18 01:40:11;;;;;;;11.50;4.70;;;10.50;99.90;;;;;;4972267;28;20047;-49
2022/02/18 01:42:39;;;;;;;6.68;5.15;;;10.60;99.90;;;;;;4971275;28;20043;-50
2022/02/18 01:45:08;;;;;;;6.93;4.38;;;10.60;99.90;;;;;;4961408;28;20101;-57
2022/02/18 01:47:35;;;;;;;8.00;4.38;;;10.60;99.90;;;;;;4960267;28;20039;-52
2022/02/18 01:50:05;;;;;;;5.47;4.43;;;10.60;99.90;;;;;;4972110;28;20034;-53
2022/02/18 01:52:35;;;;;;;11.05;5.07;;;10.60;99.90;;;;;;4969383;28;20739;-53
2022/02/18 01:55:10;;;;;;;8.60;4.50;;;10.70;99.90;;;;;;4940132;28;20139;-54
2022/02/18 01:57:41;;;;;;;8.35;4.18;;;10.60;99.90;;;;;;4967295;28;20232;-54
2022/02/18 02:00:10;;;;;;;7.40;4.65;;;10.70;99.90;;;;;;4971994;28;20050;-50
2022/02/18 02:02:41;;;;;;;7.85;4.50;;;10.70;99.90;;;;;;4972763;28;20035;-51
2022/02/18 02:05:11;;;;;;;8.38;5.03;;;10.70;99.90;;;;;;4986977;28;20533;-57
2022/02/18 02:07:43;;;;;;;5.95;4.18;;;10.70;99.90;;;;;;4955949;28;20057;-53
2022/02/18 02:10:12;;;;;;;7.93;5.05;;;10.80;99.90;;;;;;4930929;28;20042;-54
2022/02/18 02:12:50;;;;;;;9.23;5.40;;;10.80;99.90;;;;;;4971910;28;20053;-50
2022/02/18 02:15:34;;;;;;;7.68;4.70;;;10.70;99.90;;;;;;4953253;28;20054;-60
2022/02/18 02:18:02;;;;;;;6.10;4.90;;;10.70;99.90;;;;;;4965340;28;20039;-56
2022/02/18 02:20:30;;;;;;;7.20;4.75;;;10.60;99.90;;;;;;4954811;28;20045;-53
2022/02/18 02:22:58;;;;;;;10.00;5.65;;;10.60;99.90;;;;;;4940940;28;20134;-51
2022/02/18 02:25:39;;;;;;;5.80;4.18;;;10.60;99.90;;;;;;4973874;28;20051;-52
2022/02/18 02:28:25;;;;;;;5.50;3.42;;;10.60;99.90;;;;;;4973390;28;20047;-51
2022/02/18 02:30:53;;;;;;;4.95;3.65;;;10.50;99.90;;;;;;4941786;28;20058;-49
2022/02/18 02:33:21;;;;;;;7.25;3.95;;;10.60;99.90;;;;;;4957686;28;20049;-51
2022/02/18 02:35:50;;;;;;;5.15;3.90;;;10.60;99.90;;;;;;4956963;28;20043;-52
2022/02/18 02:38:19;;;;;;;5.45;3.22;;;10.60;99.90;;;;;;4971313;28;20497;-51
2022/02/18 02:40:48;;;;;;;8.60;4.10;;;10.60;99.90;;;;;;4971023;28;20082;-50
2022/02/18 02:43:16;;;;;;;8.32;4.35;;;10.60;99.90;;;;;;4971157;28;20383;-53
2022/02/18 02:45:45;;;;;;;4.82;3.60;;;10.60;99.90;;;;;;4971455;28;20065;-51
2022/02/18 02:48:14;;;;;;;9.35;4.85;;;10.50;99.90;;;;;;4955062;28;20043;-51
2022/02/18 02:50:57;;;;;;;7.63;4.22;;;10.60;99.90;;;;;;4941532;28;20050;-51
2022/02/18 02:53:27;;;;;;;4.88;3.30;;;10.60;99.90;;;;;;4972906;28;20053;-51
2022/02/18 02:55:56;;;;;;;7.93;4.20;;;10.50;99.90;;;;;;4970950;28;20058;-52
2022/02/18 02:58:23;;;;;;;6.70;4.80;;;10.50;99.90;;;;;;4956918;28;20043;-52
2022/02/18 03:00:52;;;;;;;4.70;3.17;;;10.40;99.90;;;;;;4972968;28;20038;-50
2022/02/18 03:03:33;;;;;;;8.02;4.47;;;10.40;99.90;;;;;;4973190;28;20047;-49
2022/02/18 03:06:03;;;;;;;8.27;4.22;;;10.30;99.90;;;;;;4941129;28;20084;-51
2022/02/18 03:08:32;;;;;;;5.30;4.15;;;10.30;99.90;;;;;;4958940;28;20046;-53
2022/02/18 03:11:16;;;;;;;6.60;3.60;;;10.30;99.90;;;;;;4961328;28;20482;-51
2022/02/18 03:14:03;;;;;;;20.00;5.47;;;10.20;99.90;;;;;;4976660;28;20047;-52
2022/02/18 03:16:34;;;;;;;8.10;4.00;;;10.20;99.90;;;;;;4976198;28;20039;-54
2022/02/18 03:19:02;;;;;;;5.50;4.28;;;10.20;99.90;;;;;;4977777;28;20524;-51
2022/02/18 03:21:30;;;;;;;7.25;3.60;;;10.10;99.90;;;;;;4976286;28;20069;-52
2022/02/18 03:23:58;;;;;;;6.97;4.55;;;10.10;99.90;;;;;;4960456;28;20039;-52
2022/02/18 03:26:26;;;;;;;5.72;3.72;;;10.20;99.90;;;;;;4944726;28;20061;-50
2022/02/18 03:29:06;;;;;;;9.25;5.22;;;10.20;99.90;;;;;;4976170;28;20043;-53
2022/02/18 03:31:54;;;;;;;8.35;3.78;;;10.30;99.90;;;;;;4976145;28;20046;-51
2022/02/18 03:34:22;;;;;;;5.78;3.42;;;10.30;99.90;;;;;;4975908;28;20042;-53
2022/02/18 03:36:50;;;;;;;6.65;3.90;;;10.30;99.90;;;;;;4960464;28;20047;-51
2022/02/18 03:39:23;;;;;;;7.07;4.35;;;10.40;99.90;;;;;;4976285;28;20564;-57
2022/02/18 03:41:52;;;;;;;8.20;3.72;;;10.40;99.90;;;;;;4960182;28;20057;-51
2022/02/18 03:44:21;;;;;;;6.20;3.70;;;10.40;99.90;;;;;;4975996;28;20054;-51
2022/02/18 03:47:07;;;;;;;4.60;3.05;;;10.40;99.90;;;;;;4962570;28;20363;-53
2022/02/18 03:49:37;;;;;;;6.38;4.28;;;10.40;99.90;;;;;;4960402;28;20134;-50
2022/02/18 03:52:07;;;;;;;6.00;3.78;;;10.40;99.90;;;;;;4959710;28;20063;-49
2022/02/18 03:54:36;;;;;;;5.63;3.72;;;10.40;99.90;;;;;;4975750;28;20549;-51
2022/02/18 03:57:03;;;;;;;7.20;3.65;;;10.40;99.90;;;;;;4976769;28;20054;-50
2022/02/18 03:59:31;;;;;;;6.28;4.07;;;10.40;99.90;;;;;;4943572;28;20050;-52
2022/02/18 04:02:02;;;;;;;5.45;3.40;;;10.40;99.90;;;;;;4975939;28;20130;-51
2022/02/18 04:04:29;;;;;;;4.78;3.47;;;10.40;99.90;;;;;;4959667;28;20079;-51
2022/02/18 04:07:15;;;;;;;6.28;3.70;;;10.40;99.90;;;;;;4975532;28;20058;-50
2022/02/18 04:09:50;;;;;;;7.88;4.50;;;10.40;99.90;;;;;;4975581;28;20458;-54
2022/02/18 04:12:22;;;;;;;6.50;4.00;;;10.40;99.90;;;;;;4976109;28;20097;-55
2022/02/18 04:14:58;;;;;;;8.60;4.53;;;10.40;99.90;;;;;;4960869;28;20047;-54
2022/02/18 04:17:27;;;;;;;5.13;3.95;;;10.40;99.90;;;;;;4975335;28;20047;-51
2022/02/18 04:20:08;;;;;;;4.72;3.80;;;10.40;99.90;;;;;;4961074;28;20062;-50
2022/02/18 04:22:58;;;;;;;7.13;4.40;;;10.40;99.90;;;;;;4975276;28;20066;-51
2022/02/18 04:25:30;;;;;;;7.95;4.50;;;10.50;99.90;;;;;;4975105;28;20047;-53
2022/02/18 04:28:02;;;;;;;5.78;4.22;;;10.50;99.90;;;;;;4975208;28;20056;-51
2022/02/18 04:30:31;;;;;;;4.82;3.72;;;10.40;99.90;;;;;;4975008;28;20490;-54
2022/02/18 04:32:59;;;;;;;5.72;4.53;;;10.40;99.90;;;;;;4975050;28;20051;-51
2022/02/18 04:35:28;;;;;;;4.95;4.03;;;10.40;99.90;;;;;;4975027;28;20088;-51
2022/02/18 04:37:56;;;;;;;5.63;3.85;;;10.40;99.90;;;;;;4975162;28;20485;-52
2022/02/18 04:40:23;;;;;;;7.72;4.10;;;10.40;99.90;;;;;;4976291;28;20043;-52
2022/02/18 04:42:51;;;;;;;7.38;3.28;;;10.40;99.90;;;;;;4974734;28;20391;-51
2022/02/18 04:45:19;;;;;;;7.85;3.70;;;10.40;99.90;;;;;;4974795;28;20501;-52
2022/02/18 04:47:46;;;;;;;7.50;3.55;;;10.40;99.90;;;;;;4974783;28;20461;-54
2022/02/18 04:50:14;;;;;;;5.45;3.53;;;10.40;99.90;;;;;;4943078;28;20047;-49
2022/02/18 04:52:42;;;;;;;4.97;2.78;;;10.40;99.90;;;;;;4974729;28;20061;-50
2022/02/18 04:55:09;;;;;;;6.10;3.90;;;10.40;99.90;;;;;;4974766;28;20078;-51
2022/02/18 04:57:37;;;;;;;5.70;3.17;;;10.30;99.90;;;;;;4974440;28;20051;-51
2022/02/18 05:00:06;;;;;;;4.05;2.70;;;10.30;99.90;;;;;;4974525;28;20046;-49
2022/02/18 05:02:33;;;;;;;4.45;2.33;;;10.30;99.90;;;;;;4958379;28;20050;-49
2022/02/18 05:05:05;;;;;;;4.45;2.13;;;10.20;99.90;;;;;;4958811;28;20046;-50
2022/02/18 05:07:32;;;;;;;5.30;3.17;;;10.20;99.90;;;;;;4942255;28;20110;-55
2022/02/18 05:10:04;;;;;;;4.22;2.30;;;10.20;99.90;;;;;;4974548;28;20401;-54
2022/02/18 05:12:32;;;;;;;6.28;2.70;;;10.20;99.90;;;;;;4974265;28;20049;-51
2022/02/18 05:15:00;;;;;;;3.72;2.45;;;10.20;99.90;;;;;;4974126;28;20055;-51
2022/02/18 05:17:29;;;;;;;4.20;2.58;;;10.20;99.90;;;;;;4974293;28;20512;-54
2022/02/18 05:19:58;;;;;;;7.80;3.63;;;10.20;99.90;;;;;;4974371;28;20050;-53
2022/02/18 05:22:26;;;;;;;6.93;3.78;;;10.20;99.90;;;;;;4958406;28;20569;-53
2022/02/18 05:24:55;;;;;;;6.18;3.92;;;10.30;99.90;;;;;;4971227;28;20057;-55
2022/02/18 05:27:23;;;;;;;7.88;4.28;;;10.20;99.90;;;;;;4972744;28;20039;-54
2022/02/18 05:29:50;;;;;;;6.82;3.55;;;10.30;99.90;;;;;;4972026;28;20429;-54
2022/02/18 05:32:18;;;;;;;6.38;3.58;;;10.30;99.90;;;;;;4971738;28;20043;-51
2022/02/18 05:34:45;;;;;;;5.78;3.90;;;10.30;99.90;;;;;;4972725;28;20045;-52
2022/02/18 05:37:13;;;;;;;7.25;4.13;;;10.30;99.90;;;;;;4973297;28;20054;-50
2022/02/18 05:39:41;;;;;;;7.55;4.65;;;10.30;99.90;;;;;;4966874;28;20134;-52
2022/02/18 05:42:08;;;;;;;7.30;5.25;;;10.30;99.90;;;;;;4971599;28;20031;-55
2022/02/18 05:44:36;;;;;;;7.07;4.78;;;10.30;99.90;;;;;;4972754;28;20117;-54
2022/02/18 05:47:04;;;;;;;6.90;4.78;;;10.30;99.90;;;;;;4971128;28;20398;-51
2022/02/18 05:49:31;;;;;;;8.63;5.03;;;10.30;99.90;;;;;;4972476;28;20035;-52
2022/02/18 05:51:59;;;;;;;8.68;4.97;;;10.40;99.90;;;;;;4972763;28;20431;-52
2022/02/18 05:54:27;;;;;;;6.82;5.20;;;10.40;99.90;;;;;;4971684;28;20046;-50
2022/02/18 05:56:55;;;;;;;7.43;5.18;;;10.50;99.90;;;;;;4972737;28;20038;-56
2022/02/18 05:59:22;;;;;;;7.20;5.50;;;10.60;99.90;;;;;;4947622;28;20569;-50
2022/02/18 06:01:50;;;;;;;7.30;4.85;;;10.70;99.90;;;;;;4972653;28;20038;-50
2022/02/18 06:04:18;;;;;;;8.80;5.78;;;10.90;99.90;;;;;;4972390;28;20043;-51
2022/02/18 06:06:47;;;;;;;8.13;5.78;;;11.00;99.90;;;;;;4972048;28;20174;-49
2022/02/18 06:09:15;;;;;;;7.80;5.38;;;11.20;99.90;;;;;;4965900;28;20043;-54
2022/02/18 06:11:42;;;;;;;10.45;6.28;;;11.30;99.90;;;;;;4922352;29;20182;-50
2022/02/18 06:14:10;;;;;;;11.25;6.90;;;11.50;99.90;;;;;;4954411;28;20073;-51
2022/02/18 06:16:38;;;;;;;8.98;6.38;;;11.70;99.90;;;;;;4954412;29;20051;-55
2022/02/18 06:19:09;;;;;;;8.52;5.82;;;11.90;99.90;;;;;;4955571;28;20043;-50
2022/02/18 06:21:37;;;;;;;8.60;5.85;;;12.10;99.90;;;;;;4954231;29;20050;-54
2022/02/18 06:24:05;;;;;;;10.43;6.13;;;12.30;99.90;;;;;;4954360;29;20138;-53
2022/02/18 06:26:32;;;;;;;6.88;5.82;;;12.60;99.90;;;;;;4954080;29;20044;-55
2022/02/18 06:29:00;;;;;;;7.00;4.93;;;12.80;99.90;;;;;;4955407;29;20039;-51
2022/02/18 06:31:27;;;;;;;9.05;6.00;;;13.10;99.90;;;;;;4955065;29;20078;-56
2022/02/18 06:33:55;;;;;;;8.35;5.25;;;13.40;99.90;;;;;;4954460;28;20055;-53
2022/02/18 06:36:23;;;;;;;6.35;5.40;;;13.80;99.90;;;;;;4955187;28;20089;-51
2022/02/18 06:38:51;;;;;;;10.27;5.05;;;14.20;99.90;;;;;;4955159;28;20043;-54
2022/02/18 06:41:18;;;;;;;8.13;5.32;;;14.60;99.50;;;;;;4954242;28;20073;-51
2022/02/18 06:43:46;;;;;;;12.15;5.10;;;15.00;99.00;;;;;;4957266;28;20440;-52
2022/02/18 06:46:14;;;;;;;12.95;6.45;;;15.40;98.50;;;;;;4926446;29;20443;-53
2022/02/18 06:48:41;;;;;;;11.27;6.13;;;15.80;98.00;;;;;;4957684;29;20047;-54
2022/02/18 06:51:10;;;;;;;8.48;5.70;;;16.30;97.50;;;;;;4958583;28;20086;-52
2022/02/18 06:53:38;;;;;;;7.78;5.50;;;16.70;96.90;;;;;;4957402;29;20049;-52
2022/02/18 06:56:05;;;;;;;6.45;4.82;;;17.20;96.20;;;;;;4957561;29;20047;-53
2022/02/18 06:58:34;;;;;;;8.55;5.78;;;17.70;95.50;;;;;;4957333;28;20102;-54
2022/02/18 07:01:02;;;;;;;7.63;5.57;;;18.10;94.90;;;;;;4957267;29;20489;-54
2022/02/18 07:03:30;;;;;;;8.52;5.70;;;18.60;94.30;;;;;;4925418;29;20118;-53
2022/02/18 07:06:02;;;;;;;8.77;6.07;;;18.80;93.80;;;;;;4957131;29;20047;-55
2022/02/18 07:08:31;;;;;;;8.73;6.07;;;18.90;93.50;;;;;;4958382;29;20491;-55
2022/02/18 07:10:59;;;;;;;6.60;5.35;;;18.80;93.50;;;;;;4957033;29;20054;-52
2022/02/18 07:13:27;;;;;;;20.13;7.55;;;18.60;93.80;;;;;;4957061;29;20044;-53
2022/02/18 07:15:55;;;;;;;21.02;8.60;;;18.30;94.10;;;;;;4958610;28;20106;-53
2022/02/18 07:18:23;;;;;;;15.90;8.85;;;18.00;94.60;;;;;;4957084;29;20043;-55
2022/02/18 07:20:54;;;;;;;20.65;7.82;;;17.80;94.90;;;;;;4926254;29;20047;-56
2022/02/18 07:23:22;;;;;;;11.88;6.72;;;17.80;95.40;;;;;;4941232;29;20043;-52
2022/02/18 07:25:49;;;;;;;13.52;6.78;;;17.70;95.40;;;;;;4957106;29;20047;-50
2022/02/18 07:28:17;;;;;;;14.65;7.47;;;17.80;95.30;;;;;;4956954;29;20043;-55
2022/02/18 07:30:45;;;;;;;9.75;6.20;;;17.90;95.40;;;;;;4957914;29;20441;-53
2022/02/18 07:33:12;;;;;;;10.18;5.57;;;18.00;95.30;;;;;;4956749;29;20100;-52
2022/02/18 07:35:40;;;;;;;13.82;6.35;;;18.00;95.50;;;;;;4956733;29;20141;-54
2022/02/18 07:38:08;;;;;;;10.98;7.03;;;18.10;95.50;;;;;;4956700;29;20508;-52
2022/02/18 07:40:35;;;;;;;13.95;6.15;;;18.10;95.80;;;;;;4925325;29;20059;-54
2022/02/18 07:43:03;;;;;;;12.18;5.35;;;18.10;95.90;;;;;;4940990;29;20047;-56
2022/02/18 07:45:31;;;;;;;10.73;6.55;;;18.00;96.10;;;;;;4956734;29;20441;-53
2022/02/18 07:47:59;;;;;;;12.73;6.07;;;17.90;96.30;;;;;;4957728;28;20098;-51
2022/02/18 07:50:26;;;;;;;8.60;5.43;;;17.80;96.60;;;;;;4956721;29;20063;-54
2022/02/18 07:52:54;;;;;;;15.00;6.05;;;17.70;97.10;;;;;;4940702;29;20058;-51
2022/02/18 07:55:22;;;;;;;8.55;5.97;;;17.70;97.40;;;;;;4956099;28;20059;-52
2022/02/18 07:57:50;;;;;;;19.35;8.75;;;17.60;97.60;;;;;;4956451;29;20129;-55
2022/02/18 08:00:18;;;;;;;13.80;8.30;;;17.60;98.00;;;;;;4956491;28;20141;-53
2022/02/18 08:02:46;;;;;;;14.55;7.57;;;17.60;98.10;;;;;;4956367;28;20047;-54
2022/02/18 08:05:16;;;;;;;13.88;5.88;;;17.60;98.20;;;;;;4956553;29;20490;-54
2022/02/18 08:07:43;;;;;;;9.98;6.50;;;17.60;98.40;;;;;;4940312;29;20083;-54
2022/02/18 08:10:13;;;;;;;11.38;6.03;;;17.60;98.50;;;;;;4956279;28;20046;-53
2022/02/18 08:12:41;;;;;;;12.15;4.57;;;17.60;98.70;;;;;;4924474;29;20121;-53
2022/02/18 08:15:09;;;;;;;22.48;10.27;;;17.60;98.80;;;;;;4956007;29;20043;-56
2022/02/18 08:17:38;;;;;;;11.15;6.72;;;17.70;99.10;;;;;;4956241;29;20039;-54
2022/02/18 08:20:07;;;;;;;9.38;5.15;;;17.70;98.90;;;;;;4940324;29;20070;-54
2022/02/18 08:22:36;;;;;;;13.52;6.15;;;17.70;99.00;;;;;;4956263;29;20051;-54
2022/02/18 08:25:06;;;;;;;12.10;5.68;;;17.70;99.10;;;;;;4940001;29;20047;-52
2022/02/18 08:27:33;;;;;;;12.18;5.28;;;17.70;99.00;;;;;;4939769;29;20054;-51
2022/02/18 08:30:02;;;;;;;7.68;5.43;;;17.70;99.10;;;;;;4955844;29;20047;-51
2022/02/18 08:32:30;;;;;;;7.80;4.72;;;17.60;99.00;;;;;;4955608;29;20054;-52
2022/02/18 08:35:01;;;;;;;8.45;5.35;;;17.70;99.10;;;;;;4955694;28;20051;-50
2022/02/18 08:37:29;;;;;;;9.68;5.40;;;17.70;99.10;;;;;;4924217;29;20054;-56
2022/02/18 08:39:56;;;;;;;6.70;4.45;;;17.60;99.10;;;;;;4955711;28;20040;-55
2022/02/18 08:42:24;;;;;;;9.50;4.00;;;17.50;99.10;;;;;;4956580;29;20524;-55
2022/02/18 08:44:52;;;;;;;10.57;5.78;;;17.50;99.30;;;;;;4956885;29;20102;-52
2022/02/18 08:47:19;;;;;;;13.63;5.97;;;17.60;99.30;;;;;;4955637;29;20398;-55
2022/02/18 08:49:47;;;;;;;8.23;5.13;;;17.60;98.90;;;;;;4956563;28;20051;-54
2022/02/18 08:52:14;;;;;;;6.38;5.20;;;17.70;99.00;;;;;;4971443;28;20486;-55
2022/02/18 08:54:42;;;;;;;8.30;5.07;;;17.80;98.80;;;;;;4955285;29;20198;-55
2022/02/18 08:57:11;;;;;;;7.00;4.72;;;17.90;98.80;;;;;;4955243;29;20497;-55
2022/02/18 08:59:39;;;;;;;7.63;4.18;;;18.00;98.70;;;;;;4923737;29;20399;-55
2022/02/18 09:02:09;;;;;;;7.78;4.10;;;18.10;98.60;;;;;;4939408;29;20043;-51
2022/02/18 09:04:37;;;;;;;7.78;5.55;;;18.00;98.70;;;;;;4956438;28;20134;-54
2022/02/18 09:07:07;;;;;;;15.98;7.35;;;18.10;98.70;;;;;;4954665;29;20443;-54
2022/02/18 09:09:35;;;;;;;11.45;5.43;;;18.10;98.50;;;;;;4955029;29;20514;-55
2022/02/18 09:12:03;;;;;;;26.85;9.40;;;18.10;98.10;;;;;;4956086;29;20043;-55
2022/02/18 09:14:30;;;;;;;23.38;8.88;;;18.30;97.80;;;;;;4955031;29;20043;-55
2022/02/18 09:17:33;;;;;;;10.98;5.90;;;18.30;98.00;;;;;;4954124;29;20050;-53
2022/02/18 09:20:04;;;;;;;16.38;6.45;;;18.40;97.80;;;;;;4966899;28;20109;-54
2022/02/18 09:22:32;;;;;;;15.73;6.05;;;18.40;97.60;;;;;;4956279;28;20065;-53
2022/02/18 09:25:00;;;;;;;11.30;4.82;;;18.50;97.60;;;;;;4954961;29;20078;-56
2022/02/18 09:27:28;;;;;;;9.15;5.07;;;18.50;97.60;;;;;;4939156;29;20101;-53
2022/02/18 09:29:57;;;;;;;8.50;4.40;;;18.50;97.40;;;;;;4954722;28;20427;-55
2022/02/18 09:32:24;;;;;;;8.48;3.88;;;18.50;97.40;;;;;;4955809;29;20145;-53
2022/02/18 09:34:52;;;;;;;8.88;4.72;;;18.30;97.60;;;;;;4938968;29;20055;-54
2022/02/18 09:37:20;;;;;;;11.02;4.90;;;18.40;97.70;;;;;;4961846;28;20047;-54
2022/02/18 09:39:48;;;;;;;6.90;4.07;;;18.50;97.60;;;;;;4953191;28;20035;-58
2022/02/18 09:42:18;;;;;;;6.05;3.95;;;18.20;97.50;;;;;;4972017;28;20073;-57
2022/02/18 09:44:48;;;;;;;7.50;4.20;;;18.20;97.80;;;;;;4972749;28;20039;-56
2022/02/18 09:47:17;;;;;;;7.82;4.18;;;18.10;97.90;;;;;;4973193;28;20047;-59
2022/02/18 09:49:45;;;;;;;21.30;6.13;;;18.10;98.00;;;;;;4955204;28;20121;-56
2022/02/18 09:52:14;;;;;;;6.63;4.10;;;18.30;98.20;;;;;;4971516;28;20043;-57
2022/02/18 09:54:43;;;;;;;7.18;3.35;;;18.40;97.80;;;;;;4973854;28;20121;-56
2022/02/18 09:57:19;;;;;;;6.80;3.65;;;18.40;97.90;;;;;;4971713;28;20038;-55
2022/02/18 09:59:48;;;;;;;9.00;4.28;;;18.50;98.10;;;;;;4961113;28;20042;-55
2022/02/18 10:02:17;;;;;;;6.43;3.10;;;18.40;97.50;;;;;;4971802;28;20046;-57
2022/02/18 10:04:45;;;;;;;9.05;2.88;;;18.50;97.40;;;;;;4955546;28;20130;-57
2022/02/18 10:07:13;;;;;;;4.85;2.55;;;18.40;97.10;;;;;;4971139;28;20482;-55
2022/02/18 10:09:41;;;;;;;7.07;3.55;;;18.50;97.30;;;;;;4987357;28;20122;-56
2022/02/18 10:12:11;;;;;;;10.02;3.80;;;18.50;97.20;;;;;;4967548;28;20039;-59
2022/02/18 10:14:58;;;;;;;4.28;3.13;;;18.60;97.20;;;;;;4966947;28;20046;-57
2022/02/18 10:17:43;;;;;;;6.38;3.10;;;18.60;97.10;;;;;;4966817;28;20125;-57
2022/02/18 10:20:22;;;;;;;8.25;4.32;;;18.50;96.70;;;;;;4966721;28;20046;-61
2022/02/18 10:23:05;;;;;;;9.60;3.15;;;18.50;97.00;;;;;;4974847;28;20068;-57
2022/02/18 10:25:35;;;;;;;7.80;2.40;;;18.50;96.50;;;;;;4975722;28;20085;-55
2022/02/18 10:28:04;;;;;;;4.50;2.33;;;18.20;96.60;;;;;;4975910;28;20039;-56
2022/02/18 10:30:32;;;;;;;4.55;2.35;;;18.20;96.90;;;;;;4976136;28;20034;-55
2022/02/18 10:33:22;;;;;;;8.43;3.25;;;18.20;97.00;;;;;;4972807;28;20049;-58
2022/02/18 10:36:03;;;;;;;8.40;3.55;;;18.10;97.50;;;;;;4971201;28;20048;-56
2022/02/18 10:38:33;;;;;;;7.53;2.53;;;17.80;97.30;;;;;;4964212;28;20391;-57
2022/02/18 10:41:14;;;;;;;4.82;1.90;;;17.80;97.20;;;;;;4975879;28;20094;-55
2022/02/18 10:43:44;;;;;;;4.75;2.20;;;17.70;97.20;;;;;;4975392;28;20051;-56
2022/02/18 10:46:15;;;;;;;5.30;2.55;;;17.60;96.80;;;;;;4975205;28;20039;-54
2022/02/18 10:48:50;;;;;;;15.32;5.25;;;17.60;97.00;;;;;;4957876;28;20413;-57
2022/02/18 10:51:30;;;;;;;10.50;3.80;;;17.60;97.50;;;;;;4976905;28;20108;-55
2022/02/18 10:54:08;;;;;;;10.02;2.85;;;17.90;97.80;;;;;;4975454;28;20046;-59
2022/02/18 10:56:36;;;;;;;5.10;2.10;;;18.00;97.60;;;;;;4970043;28;20039;-57
2022/02/18 10:59:07;;;;;;;5.78;2.90;;;18.20;97.20;;;;;;4974724;28;20035;-57
2022/02/18 11:01:44;;;;;;;3.33;2.38;;;18.10;96.80;;;;;;4972488;28;20051;-54
2022/02/18 11:04:12;;;;;;;5.60;2.63;;;17.90;96.40;;;;;;4958884;28;20063;-56
2022/02/18 11:06:40;;;;;;;11.02;3.63;;;17.90;96.60;;;;;;4956970;29;20407;-54
2022/02/18 11:09:11;;;;;;;16.67;4.13;;;18.00;96.90;;;;;;4957220;28;20075;-57
2022/02/18 11:11:44;;;;;;;4.47;2.63;;;18.00;97.00;;;;;;4958474;28;20043;-57
2022/02/18 11:14:17;;;;;;;8.98;4.38;;;17.70;96.90;;;;;;4957265;29;20039;-57
2022/02/18 11:16:52;;;;;;;9.07;2.70;;;17.70;96.90;;;;;;4941067;29;20086;-57
2022/02/18 11:19:22;;;;;;;8.70;3.47;;;17.70;96.90;;;;;;4957296;29;20130;-57
2022/02/18 11:22:07;;;;;;;;;;;17.80;97.20;;;;;;4958867;28;20047;-57
2022/02/18 11:24:38;;;;;;;6.38;3.00;;;17.80;97.20;;;;;;4958359;28;19922;-57
2022/02/18 11:27:09;;;;;;;4.93;2.03;;;17.90;97.40;;;;;;4957175;29;20150;-57
2022/02/18 11:29:38;;;;;;;8.30;3.28;;;17.80;97.60;;;;;;4956541;28;20054;-57
2022/02/18 11:32:25;;;;;;;4.47;2.45;;;17.90;97.60;;;;;;4940731;29;20577;-56
2022/02/18 11:35:28;;;;;;;;;;;18.00;96.80;;;;;;4957496;29;20055;-56
2022/02/18 11:38:17;;;;;;;3.20;2.28;;;18.00;95.90;;;;;;4921014;29;20325;-57
2022/02/18 11:41:20;;;;;;;9.10;2.85;;;18.10;96.30;;;;;;4956009;29;20047;-57
2022/02/18 11:43:49;;;;;;;6.15;3.03;;;18.10;96.30;;;;;;4957890;28;20071;-55
2022/02/18 11:46:25;;;;;;;7.38;2.60;;;18.00;96.30;;;;;;4956735;29;20565;-56
2022/02/18 11:48:59;;;;;;;3.80;2.05;;;17.90;96.50;;;;;;4940496;29;20524;-55
2022/02/18 11:51:43;;;;;;;3.70;2.35;;;17.90;96.40;;;;;;4957965;28;20040;-54
2022/02/18 11:54:30;;;;;;;3.45;2.20;;;17.90;96.60;;;;;;4940639;29;20066;-56
2022/02/18 11:57:19;;;;;;;6.47;2.00;;;18.00;96.30;;;;;;4956676;29;20122;-55
2022/02/18 11:59:57;;;;;;;4.82;1.98;;;17.80;96.10;;;;;;4957674;28;20287;-56
2022/02/18 12:02:51;;;;;;;3.83;2.13;;;17.80;95.70;;;;;;4956464;29;20394;-56
2022/02/18 12:05:20;;;;;;;4.18;2.15;;;17.80;96.00;;;;;;4956456;28;20102;-56
2022/02/18 12:07:49;;;;;;;3.60;1.90;;;17.80;95.70;;;;;;4956154;29;20376;-56
2022/02/18 12:10:27;;;;;;;3.45;1.83;;;17.90;95.80;;;;;;4957522;28;20494;-56
2022/02/18 12:13:08;;;;;;;2.20;1.40;;;17.90;96.30;;;;;;4972330;28;20052;-57
2022/02/18 12:15:38;;;;;;;4.68;2.00;;;18.00;96.10;;;;;;4924904;29;20051;-57
2022/02/18 12:18:09;;;;;;;5.18;2.10;;;18.00;95.50;;;;;;4957769;28;20035;-57
2022/02/18 12:20:42;;;;;;;4.47;1.95;;;18.00;95.40;;;;;;4956254;29;20051;-58
2022/02/18 12:23:26;;;;;;;3.30;1.70;;;17.90;95.60;;;;;;4940419;29;20083;-57
2022/02/18 12:26:19;;;;;;;3.20;1.70;;;17.80;95.70;;;;;;4955936;29;20065;-56
2022/02/18 12:28:47;;;;;;;4.10;2.20;;;17.80;95.70;;;;;;4957028;29;20051;-57
2022/02/18 12:31:16;;;;;;;2.40;1.70;;;17.80;95.10;;;;;;4924614;29;20052;-57
2022/02/18 12:33:46;;;;;;;4.05;1.55;;;17.80;94.60;;;;;;4939888;29;20050;-58
2022/02/18 12:36:17;;;;;;;2.15;1.45;;;17.80;94.50;;;;;;4955717;29;20198;-57
2022/02/18 12:38:47;;;;;;;4.07;1.42;;;17.90;94.70;;;;;;4939834;29;20051;-57
2022/02/18 12:41:17;;;;;;;2.58;1.38;;;17.90;95.10;;;;;;4954733;28;20050;-57
2022/02/18 12:43:47;;;;;;;3.45;1.98;;;17.90;94.80;;;;;;4955938;29;20056;-57
2022/02/18 12:46:16;;;;;;;3.58;1.52;;;18.00;94.90;;;;;;4955720;29;20576;-57
2022/02/18 12:48:47;;;;;;;3.38;1.70;;;18.00;95.40;;;;;;4939294;29;20062;-57
2022/02/18 12:51:22;;;;;;;3.03;2.00;;;17.90;95.90;;;;;;4955568;29;20390;-57
2022/02/18 12:53:52;;;;;;;4.32;1.90;;;17.80;96.30;;;;;;4956782;29;20047;-57
2022/02/18 12:56:22;;;;;;;4.72;1.75;;;17.90;96.20;;;;;;4939687;29;20047;-56
2022/02/18 12:59:02;;;;;;;3.50;2.03;;;17.90;95.90;;;;;;4939582;29;20043;-55
2022/02/18 13:01:31;;;;;;;3.33;2.20;;;17.90;95.80;;;;;;4955235;29;20070;-56
2022/02/18 13:04:18;;;;;;;3.45;1.77;;;17.90;95.20;;;;;;4956383;28;20439;-57